sensor_id;sensor_type;location;lat;lon;timestamp;P1;durP1;ratioP1;P2;durP2;ratioP2
28682;SDS011;15862;43.062;25.626;2022-11-15T00:01:25;22.77;;;14.13;;
28682;SDS011;15862;43.062;25.626;2022-11-15T00:03:50;26.50;;;13.80;;
28682;SDS011;15862;43.062;25.626;2022-11-15T00:06:16;27.52;;;13.95;;
28682;SDS011;15862;43.062;25.626;2022-11-15T00:08:42;26.65;;;14.43;;
28682;SDS011;15862;43.062;25.626;2022-11-15T00:11:08;23.00;;;13.93;;
28682;SDS011;15862;43.062;25.626;2022-11-15T00:13:36;26.33;;;14.73;;
28682;SDS011;15862;43.062;25.626;2022-11-15T00:16:01;25.45;;;14.05;;
28682;SDS011;15862;43.062;25.626;2022-11-15T00:18:28;23.80;;;14.13;;
28682;SDS011;15862;43.062;25.626;2022-11-15T00:20:54;24.05;;;12.77;;
28682;SDS011;15862;43.062;25.626;2022-11-15T00:23:20;23.80;;;14.45;;
28682;SDS011;15862;43.062;25.626;2022-11-15T00:25:45;25.00;;;14.00;;
28682;SDS011;15862;43.062;25.626;2022-11-15T00:28:11;20.48;;;11.73;;
28682;SDS011;15862;43.062;25.626;2022-11-15T00:30:36;16.90;;;11.30;;
28682;SDS011;15862;43.062;25.626;2022-11-15T00:33:02;22.90;;;12.55;;
28682;SDS011;15862;43.062;25.626;2022-11-15T00:35:30;21.70;;;11.30;;
28682;SDS011;15862;43.062;25.626;2022-11-15T00:37:57;20.52;;;11.98;;
28682;SDS011;15862;43.062;25.626;2022-11-15T00:40:23;19.33;;;11.93;;
28682;SDS011;15862;43.062;25.626;2022-11-15T00:42:48;17.90;;;10.82;;
28682;SDS011;15862;43.062;25.626;2022-11-15T00:45:14;20.98;;;12.10;;
28682;SDS011;15862;43.062;25.626;2022-11-15T00:47:39;22.88;;;12.07;;
28682;SDS011;15862;43.062;25.626;2022-11-15T00:50:04;20.20;;;12.63;;
28682;SDS011;15862;43.062;25.626;2022-11-15T00:52:30;23.92;;;12.60;;
28682;SDS011;15862;43.062;25.626;2022-11-15T00:54:55;24.05;;;12.43;;
28682;SDS011;15862;43.062;25.626;2022-11-15T00:57:21;25.98;;;13.25;;
28682;SDS011;15862;43.062;25.626;2022-11-15T00:59:46;27.08;;;12.68;;
28682;SDS011;15862;43.062;25.626;2022-11-15T01:02:12;26.60;;;13.23;;
28682;SDS011;15862;43.062;25.626;2022-11-15T01:04:37;23.52;;;13.50;;
28682;SDS011;15862;43.062;25.626;2022-11-15T01:07:03;24.63;;;13.15;;
28682;SDS011;15862;43.062;25.626;2022-11-15T01:09:28;22.95;;;13.25;;
28682;SDS011;15862;43.062;25.626;2022-11-15T01:11:53;27.85;;;12.65;;
28682;SDS011;15862;43.062;25.626;2022-11-15T01:14:19;23.55;;;12.05;;
28682;SDS011;15862;43.062;25.626;2022-11-15T01:16:44;29.58;;;13.52;;
28682;SDS011;15862;43.062;25.626;2022-11-15T01:19:10;23.33;;;12.55;;
28682;SDS011;15862;43.062;25.626;2022-11-15T01:21:35;23.02;;;12.75;;
28682;SDS011;15862;43.062;25.626;2022-11-15T01:24:00;22.45;;;13.05;;
28682;SDS011;15862;43.062;25.626;2022-11-15T01:26:26;24.33;;;12.88;;
28682;SDS011;15862;43.062;25.626;2022-11-15T01:28:52;23.33;;;12.07;;
28682;SDS011;15862;43.062;25.626;2022-11-15T01:31:18;22.58;;;12.82;;
28682;SDS011;15862;43.062;25.626;2022-11-15T01:33:45;21.35;;;13.07;;
28682;SDS011;15862;43.062;25.626;2022-11-15T01:36:21;23.08;;;12.90;;
28682;SDS011;15862;43.062;25.626;2022-11-15T01:38:52;20.77;;;12.40;;
28682;SDS011;15862;43.062;25.626;2022-11-15T01:41:19;21.13;;;12.35;;
28682;SDS011;15862;43.062;25.626;2022-11-15T01:43:49;23.30;;;12.02;;
28682;SDS011;15862;43.062;25.626;2022-11-15T01:48:52;19.75;;;11.57;;
28682;SDS011;15862;43.062;25.626;2022-11-15T01:51:22;27.08;;;13.40;;
28682;SDS011;15862;43.062;25.626;2022-11-15T01:53:51;21.08;;;12.07;;
28682;SDS011;15862;43.062;25.626;2022-11-15T01:56:21;25.08;;;12.55;;
28682;SDS011;15862;43.062;25.626;2022-11-15T01:58:50;21.13;;;12.07;;
28682;SDS011;15862;43.062;25.626;2022-11-15T02:01:18;24.67;;;13.20;;
28682;SDS011;15862;43.062;25.626;2022-11-15T02:03:49;23.65;;;12.25;;
28682;SDS011;15862;43.062;25.626;2022-11-15T02:06:20;26.15;;;13.27;;
28682;SDS011;15862;43.062;25.626;2022-11-15T02:08:46;22.77;;;13.50;;
28682;SDS011;15862;43.062;25.626;2022-11-15T02:11:12;20.67;;;12.35;;
28682;SDS011;15862;43.062;25.626;2022-11-15T02:13:38;22.20;;;12.52;;
28682;SDS011;15862;43.062;25.626;2022-11-15T02:19:29;19.77;;;11.75;;
28682;SDS011;15862;43.062;25.626;2022-11-15T02:32:57;25.15;;;13.43;;
28682;SDS011;15862;43.062;25.626;2022-11-15T02:38:08;23.88;;;13.18;;
28682;SDS011;15862;43.062;25.626;2022-11-15T02:49:33;24.40;;;13.50;;
28682;SDS011;15862;43.062;25.626;2022-11-15T02:52:00;23.00;;;12.77;;
28682;SDS011;15862;43.062;25.626;2022-11-15T02:54:28;22.42;;;13.35;;
28682;SDS011;15862;43.062;25.626;2022-11-15T02:57:05;21.17;;;12.50;;
28682;SDS011;15862;43.062;25.626;2022-11-15T03:08:02;21.13;;;12.10;;
28682;SDS011;15862;43.062;25.626;2022-11-15T03:10:56;21.88;;;12.88;;
28682;SDS011;15862;43.062;25.626;2022-11-15T03:13:27;20.23;;;13.38;;
28682;SDS011;15862;43.062;25.626;2022-11-15T03:16:12;24.92;;;13.48;;
28682;SDS011;15862;43.062;25.626;2022-11-15T03:19:35;19.13;;;12.50;;
28682;SDS011;15862;43.062;25.626;2022-11-15T03:22:05;20.08;;;12.73;;
28682;SDS011;15862;43.062;25.626;2022-11-15T03:24:35;22.95;;;14.18;;
28682;SDS011;15862;43.062;25.626;2022-11-15T03:27:02;23.52;;;14.38;;
28682;SDS011;15862;43.062;25.626;2022-11-15T03:29:39;22.73;;;14.60;;
28682;SDS011;15862;43.062;25.626;2022-11-15T03:32:07;26.30;;;13.93;;
28682;SDS011;15862;43.062;25.626;2022-11-15T03:37:06;22.35;;;13.85;;
28682;SDS011;15862;43.062;25.626;2022-11-15T03:39:33;22.13;;;13.70;;
28682;SDS011;15862;43.062;25.626;2022-11-15T03:47:45;25.25;;;14.35;;
28682;SDS011;15862;43.062;25.626;2022-11-15T03:50:19;26.05;;;13.50;;
28682;SDS011;15862;43.062;25.626;2022-11-15T03:52:48;22.30;;;11.98;;
28682;SDS011;15862;43.062;25.626;2022-11-15T03:55:18;19.63;;;12.35;;
28682;SDS011;15862;43.062;25.626;2022-11-15T03:57:46;23.38;;;12.32;;
28682;SDS011;15862;43.062;25.626;2022-11-15T04:00:16;23.17;;;13.48;;
28682;SDS011;15862;43.062;25.626;2022-11-15T04:02:42;24.33;;;13.10;;
28682;SDS011;15862;43.062;25.626;2022-11-15T04:05:07;24.45;;;13.63;;
28682;SDS011;15862;43.062;25.626;2022-11-15T04:07:33;25.95;;;12.88;;
28682;SDS011;15862;43.062;25.626;2022-11-15T04:09:58;22.95;;;13.13;;
28682;SDS011;15862;43.062;25.626;2022-11-15T04:12:33;22.45;;;12.75;;
28682;SDS011;15862;43.062;25.626;2022-11-15T04:15:05;23.92;;;14.02;;
28682;SDS011;15862;43.062;25.626;2022-11-15T04:17:33;24.67;;;13.27;;
28682;SDS011;15862;43.062;25.626;2022-11-15T04:20:31;24.38;;;13.50;;
28682;SDS011;15862;43.062;25.626;2022-11-15T04:26:05;23.88;;;13.23;;
28682;SDS011;15862;43.062;25.626;2022-11-15T04:28:33;27.08;;;14.82;;
28682;SDS011;15862;43.062;25.626;2022-11-15T04:30:59;28.42;;;14.13;;
28682;SDS011;15862;43.062;25.626;2022-11-15T04:33:24;24.77;;;14.00;;
28682;SDS011;15862;43.062;25.626;2022-11-15T04:35:50;25.17;;;14.68;;
28682;SDS011;15862;43.062;25.626;2022-11-15T04:38:35;21.52;;;13.13;;
28682;SDS011;15862;43.062;25.626;2022-11-15T04:41:01;24.55;;;14.27;;
28682;SDS011;15862;43.062;25.626;2022-11-15T04:43:27;26.58;;;14.00;;
28682;SDS011;15862;43.062;25.626;2022-11-15T04:45:53;28.65;;;15.35;;
28682;SDS011;15862;43.062;25.626;2022-11-15T04:48:18;27.55;;;13.93;;
28682;SDS011;15862;43.062;25.626;2022-11-15T04:50:44;23.52;;;13.40;;
28682;SDS011;15862;43.062;25.626;2022-11-15T04:53:09;28.23;;;13.70;;
28682;SDS011;15862;43.062;25.626;2022-11-15T04:55:34;26.83;;;14.18;;
28682;SDS011;15862;43.062;25.626;2022-11-15T04:58:00;24.63;;;13.70;;
28682;SDS011;15862;43.062;25.626;2022-11-15T05:00:27;24.60;;;14.20;;
28682;SDS011;15862;43.062;25.626;2022-11-15T05:02:54;27.70;;;14.90;;
28682;SDS011;15862;43.062;25.626;2022-11-15T05:05:39;25.70;;;14.60;;
28682;SDS011;15862;43.062;25.626;2022-11-15T05:08:04;31.73;;;15.40;;
28682;SDS011;15862;43.062;25.626;2022-11-15T05:10:30;30.38;;;16.00;;
28682;SDS011;15862;43.062;25.626;2022-11-15T05:12:55;26.67;;;14.52;;
28682;SDS011;15862;43.062;25.626;2022-11-15T05:15:21;26.35;;;15.43;;
28682;SDS011;15862;43.062;25.626;2022-11-15T05:17:46;24.98;;;15.13;;
28682;SDS011;15862;43.062;25.626;2022-11-15T05:20:12;25.52;;;15.98;;
28682;SDS011;15862;43.062;25.626;2022-11-15T05:22:38;24.30;;;14.48;;
28682;SDS011;15862;43.062;25.626;2022-11-15T05:25:04;25.63;;;14.98;;
28682;SDS011;15862;43.062;25.626;2022-11-15T05:27:30;27.70;;;15.68;;
28682;SDS011;15862;43.062;25.626;2022-11-15T05:29:56;29.08;;;14.85;;
28682;SDS011;15862;43.062;25.626;2022-11-15T05:32:21;28.17;;;16.75;;
28682;SDS011;15862;43.062;25.626;2022-11-15T05:34:47;29.98;;;16.13;;
28682;SDS011;15862;43.062;25.626;2022-11-15T05:37:13;26.45;;;17.27;;
28682;SDS011;15862;43.062;25.626;2022-11-15T05:39:39;27.98;;;15.85;;
28682;SDS011;15862;43.062;25.626;2022-11-15T05:42:08;25.27;;;15.95;;
28682;SDS011;15862;43.062;25.626;2022-11-15T05:44:36;26.63;;;15.13;;
28682;SDS011;15862;43.062;25.626;2022-11-15T05:47:04;27.40;;;15.80;;
28682;SDS011;15862;43.062;25.626;2022-11-15T05:49:34;27.88;;;16.98;;
28682;SDS011;15862;43.062;25.626;2022-11-15T05:52:03;28.30;;;14.43;;
28682;SDS011;15862;43.062;25.626;2022-11-15T05:54:31;25.15;;;14.38;;
28682;SDS011;15862;43.062;25.626;2022-11-15T05:56:57;26.70;;;15.57;;
28682;SDS011;15862;43.062;25.626;2022-11-15T05:59:23;26.42;;;15.52;;
28682;SDS011;15862;43.062;25.626;2022-11-15T06:01:49;23.90;;;15.23;;
28682;SDS011;15862;43.062;25.626;2022-11-15T06:04:14;31.38;;;15.23;;
28682;SDS011;15862;43.062;25.626;2022-11-15T06:06:40;28.27;;;14.27;;
28682;SDS011;15862;43.062;25.626;2022-11-15T06:09:05;21.80;;;14.65;;
28682;SDS011;15862;43.062;25.626;2022-11-15T06:11:30;40.72;;;25.98;;
28682;SDS011;15862;43.062;25.626;2022-11-15T06:13:56;38.67;;;23.75;;
28682;SDS011;15862;43.062;25.626;2022-11-15T06:16:21;45.30;;;25.52;;
28682;SDS011;15862;43.062;25.626;2022-11-15T06:18:47;27.70;;;13.95;;
28682;SDS011;15862;43.062;25.626;2022-11-15T06:21:12;24.52;;;15.07;;
28682;SDS011;15862;43.062;25.626;2022-11-15T06:23:38;30.02;;;18.27;;
28682;SDS011;15862;43.062;25.626;2022-11-15T06:26:03;28.33;;;17.05;;
28682;SDS011;15862;43.062;25.626;2022-11-15T06:28:32;25.70;;;14.80;;
28682;SDS011;15862;43.062;25.626;2022-11-15T06:31:04;25.10;;;15.88;;
28682;SDS011;15862;43.062;25.626;2022-11-15T06:33:30;22.23;;;14.40;;
28682;SDS011;15862;43.062;25.626;2022-11-15T06:35:59;25.83;;;14.35;;
28682;SDS011;15862;43.062;25.626;2022-11-15T06:38:26;29.75;;;15.55;;
28682;SDS011;15862;43.062;25.626;2022-11-15T06:40:51;25.58;;;14.90;;
28682;SDS011;15862;43.062;25.626;2022-11-15T06:43:16;67.35;;;31.98;;
28682;SDS011;15862;43.062;25.626;2022-11-15T06:45:42;50.47;;;24.92;;
28682;SDS011;15862;43.062;25.626;2022-11-15T06:48:07;44.83;;;25.38;;
28682;SDS011;15862;43.062;25.626;2022-11-15T06:50:33;57.63;;;36.28;;
28682;SDS011;15862;43.062;25.626;2022-11-15T06:53:02;33.38;;;20.73;;
28682;SDS011;15862;43.062;25.626;2022-11-15T06:55:28;30.05;;;16.25;;
28682;SDS011;15862;43.062;25.626;2022-11-15T06:57:54;25.35;;;14.63;;
28682;SDS011;15862;43.062;25.626;2022-11-15T07:00:20;23.67;;;16.13;;
28682;SDS011;15862;43.062;25.626;2022-11-15T07:02:47;22.20;;;14.43;;
28682;SDS011;15862;43.062;25.626;2022-11-15T07:05:13;19.42;;;13.05;;
28682;SDS011;15862;43.062;25.626;2022-11-15T07:07:40;21.73;;;13.77;;
28682;SDS011;15862;43.062;25.626;2022-11-15T07:10:06;22.17;;;13.43;;
28682;SDS011;15862;43.062;25.626;2022-11-15T07:12:32;21.35;;;11.32;;
28682;SDS011;15862;43.062;25.626;2022-11-15T07:14:58;20.05;;;12.57;;
28682;SDS011;15862;43.062;25.626;2022-11-15T07:17:23;21.05;;;11.00;;
28682;SDS011;15862;43.062;25.626;2022-11-15T07:19:49;19.35;;;11.10;;
28682;SDS011;15862;43.062;25.626;2022-11-15T07:22:14;19.33;;;11.82;;
28682;SDS011;15862;43.062;25.626;2022-11-15T07:24:40;20.10;;;11.98;;
28682;SDS011;15862;43.062;25.626;2022-11-15T07:27:05;15.55;;;10.48;;
28682;SDS011;15862;43.062;25.626;2022-11-15T07:29:30;17.60;;;10.88;;
28682;SDS011;15862;43.062;25.626;2022-11-15T07:31:56;18.55;;;11.50;;
28682;SDS011;15862;43.062;25.626;2022-11-15T07:34:21;20.73;;;11.55;;
28682;SDS011;15862;43.062;25.626;2022-11-15T07:36:47;21.55;;;11.68;;
28682;SDS011;15862;43.062;25.626;2022-11-15T07:39:12;18.70;;;12.32;;
28682;SDS011;15862;43.062;25.626;2022-11-15T07:41:39;17.58;;;12.43;;
28682;SDS011;15862;43.062;25.626;2022-11-15T07:44:04;18.80;;;12.63;;
28682;SDS011;15862;43.062;25.626;2022-11-15T07:46:30;19.15;;;12.20;;
28682;SDS011;15862;43.062;25.626;2022-11-15T07:48:56;21.50;;;13.82;;
28682;SDS011;15862;43.062;25.626;2022-11-15T07:51:22;19.52;;;12.50;;
28682;SDS011;15862;43.062;25.626;2022-11-15T07:53:47;20.05;;;11.50;;
28682;SDS011;15862;43.062;25.626;2022-11-15T07:56:13;22.40;;;12.43;;
28682;SDS011;15862;43.062;25.626;2022-11-15T07:58:38;21.75;;;13.63;;
28682;SDS011;15862;43.062;25.626;2022-11-15T08:01:08;21.67;;;13.70;;
28682;SDS011;15862;43.062;25.626;2022-11-15T08:03:34;21.05;;;13.80;;
28682;SDS011;15862;43.062;25.626;2022-11-15T08:06:00;22.77;;;13.52;;
28682;SDS011;15862;43.062;25.626;2022-11-15T08:08:26;18.67;;;13.23;;
28682;SDS011;15862;43.062;25.626;2022-11-15T08:10:52;18.88;;;12.57;;
28682;SDS011;15862;43.062;25.626;2022-11-15T08:13:17;23.45;;;15.45;;
28682;SDS011;15862;43.062;25.626;2022-11-15T08:15:43;21.08;;;12.93;;
28682;SDS011;15862;43.062;25.626;2022-11-15T08:18:10;21.75;;;12.95;;
28682;SDS011;15862;43.062;25.626;2022-11-15T08:20:37;20.02;;;13.80;;
28682;SDS011;15862;43.062;25.626;2022-11-15T08:23:03;20.40;;;13.13;;
28682;SDS011;15862;43.062;25.626;2022-11-15T08:25:30;20.67;;;12.93;;
28682;SDS011;15862;43.062;25.626;2022-11-15T08:27:58;19.65;;;13.85;;
28682;SDS011;15862;43.062;25.626;2022-11-15T08:30:25;19.55;;;12.75;;
28682;SDS011;15862;43.062;25.626;2022-11-15T08:32:51;20.05;;;13.07;;
28682;SDS011;15862;43.062;25.626;2022-11-15T08:35:18;22.33;;;14.00;;
28682;SDS011;15862;43.062;25.626;2022-11-15T08:37:44;17.80;;;13.45;;
28682;SDS011;15862;43.062;25.626;2022-11-15T08:40:10;26.70;;;16.10;;
28682;SDS011;15862;43.062;25.626;2022-11-15T08:42:36;21.30;;;14.93;;
28682;SDS011;15862;43.062;25.626;2022-11-15T08:45:02;25.08;;;15.73;;
28682;SDS011;15862;43.062;25.626;2022-11-15T08:47:28;19.95;;;13.95;;
28682;SDS011;15862;43.062;25.626;2022-11-15T08:49:54;22.25;;;12.48;;
28682;SDS011;15862;43.062;25.626;2022-11-15T08:52:20;22.88;;;14.52;;
28682;SDS011;15862;43.062;25.626;2022-11-15T08:54:46;26.42;;;16.60;;
28682;SDS011;15862;43.062;25.626;2022-11-15T08:57:11;24.85;;;14.07;;
28682;SDS011;15862;43.062;25.626;2022-11-15T08:59:37;20.33;;;12.30;;
28682;SDS011;15862;43.062;25.626;2022-11-15T09:02:03;17.98;;;12.07;;
28682;SDS011;15862;43.062;25.626;2022-11-15T09:04:29;18.13;;;11.68;;
28682;SDS011;15862;43.062;25.626;2022-11-15T09:06:55;18.40;;;12.32;;
28682;SDS011;15862;43.062;25.626;2022-11-15T09:09:21;18.42;;;10.73;;
28682;SDS011;15862;43.062;25.626;2022-11-15T09:11:46;17.55;;;11.30;;
28682;SDS011;15862;43.062;25.626;2022-11-15T09:14:12;17.60;;;11.32;;
28682;SDS011;15862;43.062;25.626;2022-11-15T09:16:38;17.65;;;11.13;;
28682;SDS011;15862;43.062;25.626;2022-11-15T09:19:04;18.13;;;11.20;;
28682;SDS011;15862;43.062;25.626;2022-11-15T09:21:30;17.10;;;10.68;;
28682;SDS011;15862;43.062;25.626;2022-11-15T09:23:55;18.02;;;11.75;;
28682;SDS011;15862;43.062;25.626;2022-11-15T09:26:21;17.10;;;11.07;;
28682;SDS011;15862;43.062;25.626;2022-11-15T09:28:46;15.32;;;10.77;;
28682;SDS011;15862;43.062;25.626;2022-11-15T09:31:12;16.75;;;11.25;;
28682;SDS011;15862;43.062;25.626;2022-11-15T09:33:37;17.88;;;11.20;;
28682;SDS011;15862;43.062;25.626;2022-11-15T09:36:04;17.92;;;11.02;;
28682;SDS011;15862;43.062;25.626;2022-11-15T09:38:33;15.30;;;9.25;;
28682;SDS011;15862;43.062;25.626;2022-11-15T09:41:13;17.15;;;10.63;;
28682;SDS011;15862;43.062;25.626;2022-11-15T09:49:13;18.10;;;10.23;;
28682;SDS011;15862;43.062;25.626;2022-11-15T09:51:41;15.90;;;10.38;;
28682;SDS011;15862;43.062;25.626;2022-11-15T09:54:32;16.38;;;10.73;;
28682;SDS011;15862;43.062;25.626;2022-11-15T10:04:59;18.10;;;10.00;;
28682;SDS011;15862;43.062;25.626;2022-11-15T10:07:27;15.73;;;10.13;;
28682;SDS011;15862;43.062;25.626;2022-11-15T10:12:45;14.75;;;10.25;;
28682;SDS011;15862;43.062;25.626;2022-11-15T10:15:15;18.52;;;12.55;;
28682;SDS011;15862;43.062;25.626;2022-11-15T10:20:26;19.88;;;11.15;;
28682;SDS011;15862;43.062;25.626;2022-11-15T10:23:00;24.38;;;13.70;;
28682;SDS011;15862;43.062;25.626;2022-11-15T10:25:27;20.35;;;12.50;;
28682;SDS011;15862;43.062;25.626;2022-11-15T10:30:20;20.15;;;13.52;;
28682;SDS011;15862;43.062;25.626;2022-11-15T10:32:46;22.58;;;13.45;;
28682;SDS011;15862;43.062;25.626;2022-11-15T10:35:45;20.67;;;12.57;;
28682;SDS011;15862;43.062;25.626;2022-11-15T10:38:05;27.67;;;14.80;;
28682;SDS011;15862;43.062;25.626;2022-11-15T10:40:32;23.23;;;13.80;;
28682;SDS011;15862;43.062;25.626;2022-11-15T10:43:16;21.92;;;13.98;;
28682;SDS011;15862;43.062;25.626;2022-11-15T10:45:44;25.27;;;14.77;;
28682;SDS011;15862;43.062;25.626;2022-11-15T10:50:39;37.20;;;17.05;;
28682;SDS011;15862;43.062;25.626;2022-11-15T10:56:12;31.20;;;18.05;;
28682;SDS011;15862;43.062;25.626;2022-11-15T10:58:44;34.42;;;18.45;;
28682;SDS011;15862;43.062;25.626;2022-11-15T11:01:18;31.38;;;18.20;;
28682;SDS011;15862;43.062;25.626;2022-11-15T11:03:46;32.25;;;19.00;;
28682;SDS011;15862;43.062;25.626;2022-11-15T11:06:30;32.63;;;19.60;;
28682;SDS011;15862;43.062;25.626;2022-11-15T11:09:18;28.67;;;18.67;;
28682;SDS011;15862;43.062;25.626;2022-11-15T11:11:47;34.47;;;20.50;;
28682;SDS011;15862;43.062;25.626;2022-11-15T11:14:26;44.45;;;19.95;;
28682;SDS011;15862;43.062;25.626;2022-11-15T11:24:38;35.10;;;19.25;;
28682;SDS011;15862;43.062;25.626;2022-11-15T11:43:12;32.53;;;18.75;;
28682;SDS011;15862;43.062;25.626;2022-11-15T11:46:10;29.15;;;17.42;;
28682;SDS011;15862;43.062;25.626;2022-11-15T11:49:10;32.30;;;18.40;;
28682;SDS011;15862;43.062;25.626;2022-11-15T11:51:43;29.98;;;17.25;;
28682;SDS011;15862;43.062;25.626;2022-11-15T12:00:15;30.40;;;16.30;;
28682;SDS011;15862;43.062;25.626;2022-11-15T12:02:47;57.97;;;21.25;;
28682;SDS011;15862;43.062;25.626;2022-11-15T12:07:47;32.35;;;17.35;;
28682;SDS011;15862;43.062;25.626;2022-11-15T12:12:58;34.58;;;19.40;;
28682;SDS011;15862;43.062;25.626;2022-11-15T12:15:29;36.83;;;19.08;;
28682;SDS011;15862;43.062;25.626;2022-11-15T12:18:01;34.75;;;18.40;;
28682;SDS011;15862;43.062;25.626;2022-11-15T12:20:29;31.58;;;18.17;;
28682;SDS011;15862;43.062;25.626;2022-11-15T12:23:01;31.55;;;17.77;;
28682;SDS011;15862;43.062;25.626;2022-11-15T12:25:59;36.47;;;18.65;;
28682;SDS011;15862;43.062;25.626;2022-11-15T12:28:43;32.88;;;18.67;;
28682;SDS011;15862;43.062;25.626;2022-11-15T12:31:18;31.40;;;18.02;;
28682;SDS011;15862;43.062;25.626;2022-11-15T12:33:49;33.78;;;16.85;;
28682;SDS011;15862;43.062;25.626;2022-11-15T12:39:06;34.05;;;17.25;;
28682;SDS011;15862;43.062;25.626;2022-11-15T12:41:42;35.90;;;18.67;;
28682;SDS011;15862;43.062;25.626;2022-11-15T12:45:03;30.13;;;17.42;;
28682;SDS011;15862;43.062;25.626;2022-11-15T12:47:28;39.38;;;17.90;;
28682;SDS011;15862;43.062;25.626;2022-11-15T12:49:54;31.27;;;17.83;;
28682;SDS011;15862;43.062;25.626;2022-11-15T12:52:19;32.63;;;19.02;;
28682;SDS011;15862;43.062;25.626;2022-11-15T12:54:49;33.13;;;18.95;;
28682;SDS011;15862;43.062;25.626;2022-11-15T13:17:38;37.28;;;19.25;;
28682;SDS011;15862;43.062;25.626;2022-11-15T13:27:47;34.20;;;17.73;;
28682;SDS011;15862;43.062;25.626;2022-11-15T13:30:25;37.88;;;18.17;;
28682;SDS011;15862;43.062;25.626;2022-11-15T13:32:52;37.38;;;18.77;;
28682;SDS011;15862;43.062;25.626;2022-11-15T13:35:20;32.00;;;16.70;;
28682;SDS011;15862;43.062;25.626;2022-11-15T13:37:48;32.03;;;18.25;;
28682;SDS011;15862;43.062;25.626;2022-11-15T13:42:55;41.90;;;18.27;;
28682;SDS011;15862;43.062;25.626;2022-11-15T13:45:23;36.13;;;16.83;;
28682;SDS011;15862;43.062;25.626;2022-11-15T13:47:53;31.90;;;16.75;;
28682;SDS011;15862;43.062;25.626;2022-11-15T13:50:22;37.22;;;18.02;;
28682;SDS011;15862;43.062;25.626;2022-11-15T13:52:57;34.60;;;18.58;;
28682;SDS011;15862;43.062;25.626;2022-11-15T13:55:26;37.08;;;18.25;;
28682;SDS011;15862;43.062;25.626;2022-11-15T13:57:54;40.03;;;21.15;;
28682;SDS011;15862;43.062;25.626;2022-11-15T14:02:54;34.13;;;17.10;;
28682;SDS011;15862;43.062;25.626;2022-11-15T14:05:22;37.17;;;16.90;;
28682;SDS011;15862;43.062;25.626;2022-11-15T14:07:59;31.65;;;17.23;;
28682;SDS011;15862;43.062;25.626;2022-11-15T14:10:29;38.00;;;18.40;;
28682;SDS011;15862;43.062;25.626;2022-11-15T14:12:57;48.08;;;20.50;;
28682;SDS011;15862;43.062;25.626;2022-11-15T14:15:33;38.97;;;20.27;;
28682;SDS011;15862;43.062;25.626;2022-11-15T14:18:00;40.95;;;21.83;;
28682;SDS011;15862;43.062;25.626;2022-11-15T14:20:33;53.63;;;26.95;;
28682;SDS011;15862;43.062;25.626;2022-11-15T14:22:59;83.50;;;28.20;;
28682;SDS011;15862;43.062;25.626;2022-11-15T14:25:28;41.47;;;21.10;;
28682;SDS011;15862;43.062;25.626;2022-11-15T14:30:36;50.58;;;23.30;;
28682;SDS011;15862;43.062;25.626;2022-11-15T14:33:01;44.85;;;19.50;;
28682;SDS011;15862;43.062;25.626;2022-11-15T14:35:27;41.63;;;20.73;;
28682;SDS011;15862;43.062;25.626;2022-11-15T14:37:53;39.15;;;20.40;;
28682;SDS011;15862;43.062;25.626;2022-11-15T14:40:19;40.88;;;20.17;;
28682;SDS011;15862;43.062;25.626;2022-11-15T14:42:48;41.75;;;21.13;;
28682;SDS011;15862;43.062;25.626;2022-11-15T14:45:16;35.55;;;20.02;;
28682;SDS011;15862;43.062;25.626;2022-11-15T14:47:43;40.35;;;20.98;;
28682;SDS011;15862;43.062;25.626;2022-11-15T14:50:12;38.50;;;19.98;;
28682;SDS011;15862;43.062;25.626;2022-11-15T14:52:39;40.10;;;20.38;;
28682;SDS011;15862;43.062;25.626;2022-11-15T14:55:16;35.42;;;18.75;;
28682;SDS011;15862;43.062;25.626;2022-11-15T14:57:45;39.40;;;20.98;;
28682;SDS011;15862;43.062;25.626;2022-11-15T15:00:12;47.65;;;23.58;;
28682;SDS011;15862;43.062;25.626;2022-11-15T15:02:38;46.63;;;22.70;;
28682;SDS011;15862;43.062;25.626;2022-11-15T15:05:15;45.17;;;23.17;;
28682;SDS011;15862;43.062;25.626;2022-11-15T15:07:42;44.08;;;21.80;;
28682;SDS011;15862;43.062;25.626;2022-11-15T15:10:08;44.95;;;21.40;;
28682;SDS011;15862;43.062;25.626;2022-11-15T15:12:34;37.22;;;19.63;;
28682;SDS011;15862;43.062;25.626;2022-11-15T15:14:59;40.42;;;19.35;;
28682;SDS011;15862;43.062;25.626;2022-11-15T15:17:25;40.90;;;19.80;;
28682;SDS011;15862;43.062;25.626;2022-11-15T15:19:50;40.05;;;19.40;;
28682;SDS011;15862;43.062;25.626;2022-11-15T15:22:16;40.42;;;20.33;;
28682;SDS011;15862;43.062;25.626;2022-11-15T15:24:44;38.40;;;21.27;;
28682;SDS011;15862;43.062;25.626;2022-11-15T15:27:11;34.60;;;18.52;;
28682;SDS011;15862;43.062;25.626;2022-11-15T15:29:37;42.33;;;20.45;;
28682;SDS011;15862;43.062;25.626;2022-11-15T15:32:03;37.88;;;19.38;;
28682;SDS011;15862;43.062;25.626;2022-11-15T15:34:28;37.50;;;19.65;;
28682;SDS011;15862;43.062;25.626;2022-11-15T15:39:44;37.80;;;19.45;;
28682;SDS011;15862;43.062;25.626;2022-11-15T15:42:09;41.03;;;20.60;;
28682;SDS011;15862;43.062;25.626;2022-11-15T15:44:35;32.70;;;18.38;;
28682;SDS011;15862;43.062;25.626;2022-11-15T15:47:00;38.08;;;20.52;;
28682;SDS011;15862;43.062;25.626;2022-11-15T15:49:26;41.50;;;20.95;;
28682;SDS011;15862;43.062;25.626;2022-11-15T15:51:51;34.60;;;18.85;;
28682;SDS011;15862;43.062;25.626;2022-11-15T15:54:16;41.30;;;19.95;;
28682;SDS011;15862;43.062;25.626;2022-11-15T15:56:42;33.53;;;18.52;;
28682;SDS011;15862;43.062;25.626;2022-11-15T15:59:07;41.67;;;20.98;;
28682;SDS011;15862;43.062;25.626;2022-11-15T16:01:33;38.55;;;20.17;;
28682;SDS011;15862;43.062;25.626;2022-11-15T16:03:58;40.65;;;20.20;;
28682;SDS011;15862;43.062;25.626;2022-11-15T16:06:34;35.70;;;20.00;;
28682;SDS011;15862;43.062;25.626;2022-11-15T16:09:02;36.05;;;19.38;;
28682;SDS011;15862;43.062;25.626;2022-11-15T16:11:28;37.40;;;19.95;;
28682;SDS011;15862;43.062;25.626;2022-11-15T16:13:53;35.03;;;20.05;;
28682;SDS011;15862;43.062;25.626;2022-11-15T16:16:18;39.30;;;20.45;;
28682;SDS011;15862;43.062;25.626;2022-11-15T16:18:46;41.95;;;21.75;;
28682;SDS011;15862;43.062;25.626;2022-11-15T16:21:11;37.75;;;20.10;;
28682;SDS011;15862;43.062;25.626;2022-11-15T16:23:37;43.40;;;20.15;;
28682;SDS011;15862;43.062;25.626;2022-11-15T16:26:02;35.15;;;18.60;;
28682;SDS011;15862;43.062;25.626;2022-11-15T16:28:43;36.88;;;20.10;;
28682;SDS011;15862;43.062;25.626;2022-11-15T16:31:09;38.60;;;18.55;;
28682;SDS011;15862;43.062;25.626;2022-11-15T16:33:35;37.67;;;19.00;;
28682;SDS011;15862;43.062;25.626;2022-11-15T16:36:02;32.58;;;19.30;;
28682;SDS011;15862;43.062;25.626;2022-11-15T16:38:29;35.42;;;18.08;;
28682;SDS011;15862;43.062;25.626;2022-11-15T16:40:54;31.88;;;18.23;;
28682;SDS011;15862;43.062;25.626;2022-11-15T16:43:20;38.22;;;19.80;;
28682;SDS011;15862;43.062;25.626;2022-11-15T16:45:45;33.85;;;19.75;;
28682;SDS011;15862;43.062;25.626;2022-11-15T16:48:21;37.00;;;19.27;;